Time;durP1;ratioP1;P1;durP2;ratioP2;P2;SDS_P1;SDS_P2;PMS_P1;PMS_P2;Temp;Humidity;BMP_temperature;BMP_pressure;BME280_temperature;BME280_humidity;BME280_pressure;Samples;Min_cycle;Max_cycle;Signal;HPM_P1;HPM_P2
2022/12/16 00:02:09;;;;;;;16.23;14.57;;;;;;;3.61;100.00;92635.41;5108661;28;20212;-71
2022/12/16 00:04:35;;;;;;;21.23;16.77;;;;;;;3.58;100.00;92638.44;5112459;28;20199;-72
2022/12/16 00:07:00;;;;;;;17.17;15.57;;;;;;;3.58;100.00;92633.28;5112725;28;20216;-71
2022/12/16 00:09:25;;;;;;;17.47;15.70;;;;;;;3.68;100.00;92624.91;5112175;28;20184;-71
2022/12/16 00:11:51;;;;;;;18.33;15.53;;;;;;;3.74;100.00;92626.56;5111923;28;20212;-71
2022/12/16 00:14:16;;;;;;;17.53;13.87;;;;;;;3.58;100.00;92628.13;5112608;28;20239;-72
2022/12/16 00:16:41;;;;;;;16.77;14.97;;;;;;;3.59;100.00;92624.56;5111881;28;20231;-72
2022/12/16 00:19:07;;;;;;;19.40;17.50;;;;;;;3.79;100.00;92640.34;5112278;28;20184;-71
2022/12/16 00:21:32;;;;;;;19.60;17.10;;;;;;;3.81;100.00;92625.41;5112108;28;20227;-71
2022/12/16 00:23:57;;;;;;;17.73;15.97;;;;;;;3.64;100.00;92616.88;5112746;28;20181;-72
2022/12/16 00:26:23;;;;;;;18.50;16.53;;;;;;;3.33;100.00;92619.22;5112415;28;20231;-71
2022/12/16 00:28:49;;;;;;;18.40;15.77;;;;;;;3.59;100.00;92619.38;5112729;28;20227;-72
2022/12/16 00:31:14;;;;;;;16.50;15.20;;;;;;;3.71;100.00;92634.78;5112543;28;20253;-72
2022/12/16 00:33:39;;;;;;;16.33;15.03;;;;;;;3.72;100.00;92629.38;5095152;28;20176;-72
2022/12/16 00:36:06;;;;;;;15.53;14.17;;;;;;;3.68;100.00;92627.50;5112503;28;20219;-72
2022/12/16 00:38:31;;;;;;;16.10;14.60;;;;;;;3.73;100.00;92637.91;5112037;28;20188;-72
2022/12/16 00:40:56;;;;;;;17.33;15.90;;;;;;;3.84;100.00;92627.50;5111881;28;20258;-72
2022/12/16 00:43:22;;;;;;;17.57;15.93;;;;;;;3.94;100.00;92619.13;5112403;28;20184;-72
2022/12/16 00:45:48;;;;;;;17.67;15.87;;;;;;;4.00;100.00;92623.31;5112234;28;20231;-72
2022/12/16 00:48:13;;;;;;;16.50;15.00;;;;;;;3.90;100.00;92618.81;5112414;28;20176;-72
2022/12/16 00:50:39;;;;;;;15.47;14.27;;;;;;;3.78;100.00;92617.34;5111664;28;20283;-72
2022/12/16 00:53:04;;;;;;;15.30;14.00;;;;;;;3.87;100.00;92611.53;5094448;28;20176;-72
2022/12/16 00:55:31;;;;;;;16.93;15.23;;;;;;;3.84;100.00;92627.50;5111931;28;20195;-72
2022/12/16 00:57:57;;;;;;;14.27;13.27;;;;;;;3.84;100.00;92627.50;5112581;28;20282;-72
2022/12/16 01:00:22;;;;;;;20.97;16.83;;;;;;;3.63;100.00;92615.31;5112170;28;20745;-72
2022/12/16 01:02:49;;;;;;;17.17;15.43;;;;;;;3.82;100.00;92613.25;5112254;28;20172;-72
2022/12/16 01:05:18;;;;;;;18.60;16.80;;;;;;;3.78;100.00;92584.56;5111707;28;20908;-71
2022/12/16 01:07:43;;;;;;;16.00;14.60;;;;;;;3.80;100.00;92618.66;5111675;28;20218;-72
2022/12/16 01:10:09;;;;;;;16.00;14.50;;;;;;;3.64;100.00;92605.78;5094066;28;20874;-72
2022/12/16 01:12:36;;;;;;;14.93;13.53;;;;;;;3.80;100.00;92608.31;5105994;28;20273;-72
2022/12/16 01:15:03;;;;;;;14.47;13.37;;;;;;;3.85;100.00;92613.56;5110960;28;20191;-71
2022/12/16 01:17:28;;;;;;;15.03;13.83;;;;;;;3.59;100.00;92624.56;5111431;28;20220;-72
2022/12/16 01:19:54;;;;;;;18.70;16.80;;;;;;;3.43;100.00;92630.47;5111717;28;20213;-72
2022/12/16 01:22:20;;;;;;;20.10;17.93;;;;;;;3.78;100.00;92633.63;5111732;28;20216;-72
2022/12/16 01:24:46;;;;;;;20.60;18.47;;;;;;;3.75;100.00;92626.31;5111854;28;20192;-72
2022/12/16 01:27:12;;;;;;;19.03;17.17;;;;;;;3.84;100.00;92614.59;5111200;28;20283;-72
2022/12/16 01:29:37;;;;;;;20.90;18.90;;;;;;;3.74;100.00;92585.25;5111574;28;20199;-73
2022/12/16 01:32:03;;;;;;;20.50;18.30;;;;;;;3.79;100.00;92614.50;5111545;28;20224;-72
2022/12/16 01:34:29;;;;;;;20.50;18.23;;;;;;;3.79;100.00;92585.31;5112056;28;20188;-72
2022/12/16 01:36:54;;;;;;;22.33;19.37;;;;;;;3.85;100.00;92613.56;5111158;28;20231;-72
2022/12/16 01:39:20;;;;;;;22.87;20.40;;;;;;;3.96;100.00;92607.50;5098146;28;20861;-72
2022/12/16 01:41:45;;;;;;;24.43;19.83;;;;;;;3.85;100.00;92603.22;5093523;28;20230;-73
2022/12/16 01:44:15;;;;;;;65.33;26.27;;;;;;;3.90;100.00;92592.97;5111798;28;20184;-72
2022/12/16 01:46:41;;;;;;;48.67;24.80;;;;;;;3.73;100.00;92604.34;5111053;28;20232;-72
2022/12/16 01:49:15;;;;;;;46.63;26.63;;;;;;;3.66;100.00;92594.19;5109871;28;20184;-71
2022/12/16 01:51:43;;;;;;;39.47;26.60;;;;;;;3.76;100.00;92594.34;5107222;28;20220;-71
2022/12/16 01:54:10;;;;;;;38.40;26.67;;;;;;;3.52;100.00;92569.72;5098147;28;20198;-72
2022/12/16 01:56:40;;;;;;;32.57;24.10;;;;;;;3.76;100.00;92590.97;5110609;28;20220;-72
2022/12/16 01:59:07;;;;;;;32.97;25.23;;;;;;;3.74;100.00;92606.69;5109868;28;20172;-72
2022/12/16 02:01:32;;;;;;;35.03;25.40;;;;;;;3.81;100.00;92597.00;5110877;28;20228;-71
2022/12/16 02:04:01;;;;;;;35.17;25.80;;;;;;;3.77;100.00;92595.88;5111697;28;20215;-71
2022/12/16 02:06:28;;;;;;;33.83;25.53;;;;;;;3.78;100.00;92583.78;5110849;28;20216;-72
2022/12/16 02:08:57;;;;;;;33.90;24.20;;;;;;;3.69;100.00;92573.06;5111115;28;20184;-72
2022/12/16 02:11:43;;;;;;;31.03;22.50;;;;;;;3.57;100.00;92580.13;5110276;28;20258;-72
2022/12/16 02:14:17;;;;;;;28.87;22.43;;;;;;;3.93;100.00;92566.69;5111097;28;20184;-72
2022/12/16 02:16:54;;;;;;;27.30;21.00;;;;;;;3.68;100.00;92571.50;5110366;28;20233;-72
2022/12/16 02:19:22;;;;;;;29.57;22.37;;;;;;;3.91;100.00;92562.75;5110179;28;20199;-72
2022/12/16 02:21:56;;;;;;;28.17;21.07;;;;;;;3.86;100.00;92558.31;5109839;28;20230;-72
2022/12/16 02:24:55;;;;;;;22.50;19.50;;;;;;;3.93;100.00;92560.72;5110995;28;20180;-71
2022/12/16 02:27:23;;;;;;;23.37;18.93;;;;;;;4.02;100.00;92564.44;5110381;28;20232;-72
2022/12/16 02:30:18;;;;;;;20.30;16.97;;;;;;;4.05;100.00;92566.53;5108059;28;20207;-71
2022/12/16 02:33:14;;;;;;;19.57;17.50;;;;;;;4.05;100.00;92564.75;5086025;28;20215;-71
2022/12/16 02:36:10;;;;;;;19.63;16.73;;;;;;;3.90;100.00;92574.91;5092276;28;20227;-72
2022/12/16 02:38:44;;;;;;;20.53;18.37;;;;;;;4.10;100.00;92584.69;5093238;28;20222;-72
2022/12/16 02:41:33;;;;;;;24.20;20.10;;;;;;;4.11;100.00;92557.88;5109908;28;20253;-71
2022/12/16 02:44:04;;;;;;;21.37;16.97;;;;;;;4.07;100.00;92570.47;5066605;28;20191;-72
2022/12/16 02:46:34;;;;;;;19.07;17.10;;;;;;;4.06;100.00;92566.31;5109916;28;20333;-72
2022/12/16 02:49:27;;;;;;;20.83;18.67;;;;;;;3.89;100.00;92578.50;5091882;28;20239;-72
2022/12/16 02:51:53;;;;;;;23.73;20.67;;;;;;;3.93;100.00;92589.91;5109716;28;20232;-72
2022/12/16 02:54:19;;;;;;;21.20;19.00;;;;;;;4.01;100.00;92606.81;5110240;28;20181;-72
2022/12/16 02:57:14;;;;;;;22.40;19.97;;;;;;;3.77;100.00;92611.38;5108743;28;20292;-72
2022/12/16 02:59:55;;;;;;;26.63;19.80;;;;;;;3.96;100.00;92614.47;5109863;28;20184;-72
2022/12/16 03:02:27;;;;;;;28.00;21.43;;;;;;;3.99;100.00;92612.22;5096991;28;20212;-71
2022/12/16 03:05:04;;;;;;;25.80;21.50;;;;;;;4.02;100.00;92624.63;5109899;28;20198;-72
2022/12/16 03:07:33;;;;;;;30.80;23.50;;;;;;;3.89;100.00;92614.63;5109541;28;20969;-72
2022/12/16 03:10:00;;;;;;;28.07;21.93;;;;;;;3.86;100.00;92615.13;5110201;28;20184;-72
2022/12/16 03:12:26;;;;;;;21.13;18.93;;;;;;;3.96;100.00;92602.34;5109409;28;20223;-71
2022/12/16 03:14:54;;;;;;;18.27;16.37;;;;;;;3.86;100.00;92589.28;5109944;28;20187;-72
2022/12/16 03:17:22;;;;;;;18.63;16.77;;;;;;;3.84;100.00;92580.22;5109434;28;20250;-72
2022/12/16 03:20:00;;;;;;;18.67;16.73;;;;;;;3.95;100.00;92577.56;5109754;28;20206;-72
2022/12/16 03:22:33;;;;;;;15.70;14.10;;;;;;;4.02;100.00;92552.31;5108801;28;20231;-72
2022/12/16 03:24:58;;;;;;;17.37;15.53;;;;;;;3.77;100.00;92559.75;5109909;28;20187;-72
2022/12/16 03:27:46;;;;;;;16.33;14.80;;;;;;;3.92;100.00;92565.09;5108551;28;20231;-71
2022/12/16 03:30:42;;;;;;;16.40;15.00;;;;;;;4.00;100.00;92564.69;5090907;28;20373;-71
2022/12/16 03:33:15;;;;;;;23.33;18.60;;;;;;;4.24;100.00;92563.44;5108065;28;20208;-72
2022/12/16 03:35:49;;;;;;;18.63;16.70;;;;;;;4.04;100.00;92557.25;5109810;28;20227;-72
2022/12/16 03:38:16;;;;;;;19.70;17.70;;;;;;;4.01;100.00;92557.72;5108903;28;20223;-72
2022/12/16 03:40:43;;;;;;;22.10;19.73;;;;;;;4.07;100.00;92564.50;5109142;28;20223;-72
2022/12/16 03:43:10;;;;;;;20.50;18.30;;;;;;;4.19;100.00;92563.38;5109574;28;20180;-73
2022/12/16 03:45:41;;;;;;;20.40;18.00;;;;;;;4.18;100.00;92561.03;5109402;28;20184;-72
2022/12/16 03:48:09;;;;;;;19.23;17.43;;;;;;;3.86;100.00;92562.72;5109418;28;20207;-72
2022/12/16 03:50:35;;;;;;;22.07;19.77;;;;;;;3.76;100.00;92604.66;5108866;28;20172;-72
2022/12/16 03:53:02;;;;;;;26.60;20.53;;;;;;;3.64;100.00;92611.72;5108882;28;20235;-72
2022/12/16 03:55:27;;;;;;;29.20;21.40;;;;;;;3.98;100.00;92617.59;5109110;28;20206;-72
2022/12/16 03:57:53;;;;;;;45.03;24.67;;;;;;;4.17;100.00;92627.41;5109495;28;20207;-71
2022/12/16 04:00:19;;;;;;;29.37;22.10;;;;;;;4.10;100.00;92600.97;5109199;28;20187;-71
2022/12/16 04:02:46;;;;;;;34.43;24.43;;;;;;;4.19;100.00;92604.72;5107943;28;20204;-72
2022/12/16 04:05:11;;;;;;;38.80;23.97;;;;;;;4.20;100.00;92606.25;5109828;28;20184;-70
2022/12/16 04:07:37;;;;;;;76.00;24.47;;;;;;;4.40;100.00;92610.91;5109016;28;20213;-71
2022/12/16 04:10:03;;;;;;;83.43;26.37;;;;;;;4.13;100.00;92610.06;5109498;28;20188;-71
2022/12/16 04:26:16;;;;;;;67.53;25.13;;;;;;;4.05;100.00;92598.34;5109244;28;20292;-71
2022/12/16 04:28:41;;;;;;;33.00;23.57;;;;;;;3.60;100.00;92547.88;5091038;28;20208;-71
2022/12/16 04:31:07;;;;;;;30.60;22.67;;;;;;;3.89;100.00;92578.50;5108734;28;20220;-71
